Aérodrome :
LOGIN :

S'inscrire | Disclaimer

   EN    FR    IT 

 










Légende :    VFR   VFR Marginal   IFR   IFR Intensif   IFR Très Intensif
Visi : 
Plafond : 
>= 8 km
>= 3000ft
5 à 8 km
1000 à 3000 ft
1500m à 5 km
500 à 1000 ft
800 à 1500m
200 à 500 ft
< 800m
< 200 ft
Symboles :   Orages  Brouillard  Fortes neiges  Fortes précipitations  Vent > 20 kt
SIGMETs :   Divers  Orages  Givrage  Turbulence  Onde Orograph.  Cendres Volcan.







- Altitude de l'aérodrome : 16 ft
- Code IATA : SDR


LEXJ - Santander Cantabria

DERNIER METAR :
  • 250430Z 28004KT 7000 SCT012 OVC024 14/14 Q1021

METARs EXPIRÉS :
  • 250400Z 27004KT 7000 -DZ BKN012 OVC030 14/14 Q1021
  • 250330Z 29004KT 260V320 7000 -DZ SCT008 BKN015 OVC030 14/14 Q1020
  • 250300Z AUTO VRB02KT 5000 BR FEW006/// BKN011/// OVC017/// 15/15 Q1020
  • 250230Z AUTO VRB01KT 7000 FEW014/// OVC030/// 15/15 Q1020
  • 250200Z AUTO 22002KT 4800 BR BKN016/// BKN023/// OVC029/// 15/15 Q1020

TAF TAF LEXJ
Valide du 25 à 03h jusqu'au 26 à 03h UTC


250200Z 2503/2603 VRB05KT 7000 SCT012 BKN016 TX17/2515Z TN12/2506Z
TEMPO 2503/2511 4500 -DZ BR BKN010
TEMPO 2503/2511 3000 -DZ BR BKN008
PROB40
TEMPO 2503/2508 1500 DZ BR BKN002
PROB40
TEMPO 2518/2602 3000 BR BKN010
Pas de NOTAMs connus pour ce terrain.



MET'MAP, la Météo Aéronautique d'un coup d'oeil ! - Copyright ORBIFLY Décembre 2007 - Disclaimer

ORBIFLY MET'MAP TEAM :

Programmation & Développement : Alexandra Zaïnal
Conception & Développement : Baudouin d'Aumeries
Co-Programmation & Développement : Marc-Olivier Méhu
Soutien technique & logistique : Manuel Goepfert

Contact : metmap@orbifly.com




SOURCES & CREDITS :

   NOAA